sensor_id;sensor_type;location;lat;lon;timestamp;P1;durP1;ratioP1;P2;durP2;ratioP2
56102;SDS011;41970;48.774;9.280;2022-08-30T00:00:18;4.70;;;4.13;;
56102;SDS011;41970;48.774;9.280;2022-08-30T00:03:04;4.70;;;3.93;;
56102;SDS011;41970;48.774;9.280;2022-08-30T00:05:32;4.97;;;4.50;;
56102;SDS011;41970;48.774;9.280;2022-08-30T00:07:59;5.80;;;4.60;;
56102;SDS011;41970;48.774;9.280;2022-08-30T00:10:25;5.03;;;4.40;;
56102;SDS011;41970;48.774;9.280;2022-08-30T00:12:53;5.37;;;4.40;;
56102;SDS011;41970;48.774;9.280;2022-08-30T00:15:21;5.50;;;4.57;;
56102;SDS011;41970;48.774;9.280;2022-08-30T00:17:47;5.20;;;4.70;;
56102;SDS011;41970;48.774;9.280;2022-08-30T00:20:14;5.03;;;4.53;;
56102;SDS011;41970;48.774;9.280;2022-08-30T00:22:43;5.50;;;5.00;;
56102;SDS011;41970;48.774;9.280;2022-08-30T00:25:09;4.60;;;4.20;;
56102;SDS011;41970;48.774;9.280;2022-08-30T00:27:36;4.67;;;4.27;;
56102;SDS011;41970;48.774;9.280;2022-08-30T00:30:03;4.90;;;4.40;;
56102;SDS011;41970;48.774;9.280;2022-08-30T00:32:30;4.80;;;4.40;;
56102;SDS011;41970;48.774;9.280;2022-08-30T00:34:56;7.03;;;5.10;;
56102;SDS011;41970;48.774;9.280;2022-08-30T00:37:22;6.43;;;5.07;;
56102;SDS011;41970;48.774;9.280;2022-08-30T00:39:48;5.53;;;4.07;;
56102;SDS011;41970;48.774;9.280;2022-08-30T00:42:14;5.50;;;4.50;;
56102;SDS011;41970;48.774;9.280;2022-08-30T00:44:41;6.03;;;5.10;;
56102;SDS011;41970;48.774;9.280;2022-08-30T00:47:07;5.43;;;4.93;;
56102;SDS011;41970;48.774;9.280;2022-08-30T00:49:34;7.83;;;4.67;;
56102;SDS011;41970;48.774;9.280;2022-08-30T00:52:02;4.77;;;4.33;;
56102;SDS011;41970;48.774;9.280;2022-08-30T00:54:28;5.73;;;5.33;;
56102;SDS011;41970;48.774;9.280;2022-08-30T00:56:56;5.20;;;4.67;;
56102;SDS011;41970;48.774;9.280;2022-08-30T00:59:23;4.77;;;4.17;;
56102;SDS011;41970;48.774;9.280;2022-08-30T01:01:50;4.90;;;4.40;;
56102;SDS011;41970;48.774;9.280;2022-08-30T01:04:17;6.43;;;4.90;;
56102;SDS011;41970;48.774;9.280;2022-08-30T01:06:45;5.27;;;4.60;;
56102;SDS011;41970;48.774;9.280;2022-08-30T01:09:11;6.37;;;4.93;;
56102;SDS011;41970;48.774;9.280;2022-08-30T01:11:39;8.73;;;5.50;;
56102;SDS011;41970;48.774;9.280;2022-08-30T01:14:07;6.47;;;4.60;;
56102;SDS011;41970;48.774;9.280;2022-08-30T01:16:39;5.53;;;5.03;;
56102;SDS011;41970;48.774;9.280;2022-08-30T01:19:15;5.50;;;4.60;;
56102;SDS011;41970;48.774;9.280;2022-08-30T01:22:07;5.63;;;5.13;;
56102;SDS011;41970;48.774;9.280;2022-08-30T01:24:53;5.43;;;4.93;;
56102;SDS011;41970;48.774;9.280;2022-08-30T01:27:21;5.70;;;5.20;;
56102;SDS011;41970;48.774;9.280;2022-08-30T01:29:48;13.53;;;5.47;;
56102;SDS011;41970;48.774;9.280;2022-08-30T01:32:18;7.47;;;6.77;;
56102;SDS011;41970;48.774;9.280;2022-08-30T01:34:49;7.67;;;6.63;;
56102;SDS011;41970;48.774;9.280;2022-08-30T01:37:16;5.27;;;4.80;;
56102;SDS011;41970;48.774;9.280;2022-08-30T01:39:45;6.20;;;5.60;;
56102;SDS011;41970;48.774;9.280;2022-08-30T01:42:13;5.30;;;4.63;;
56102;SDS011;41970;48.774;9.280;2022-08-30T01:44:41;5.40;;;4.90;;
56102;SDS011;41970;48.774;9.280;2022-08-30T01:47:08;5.47;;;4.93;;
56102;SDS011;41970;48.774;9.280;2022-08-30T01:49:33;5.13;;;4.63;;
56102;SDS011;41970;48.774;9.280;2022-08-30T01:51:59;6.70;;;5.03;;
56102;SDS011;41970;48.774;9.280;2022-08-30T01:54:25;5.60;;;5.10;;
56102;SDS011;41970;48.774;9.280;2022-08-30T01:56:51;8.93;;;5.63;;
56102;SDS011;41970;48.774;9.280;2022-08-30T01:59:17;5.63;;;4.90;;
56102;SDS011;41970;48.774;9.280;2022-08-30T02:01:43;5.90;;;5.30;;
56102;SDS011;41970;48.774;9.280;2022-08-30T02:04:09;5.63;;;5.13;;
56102;SDS011;41970;48.774;9.280;2022-08-30T02:06:37;9.07;;;6.40;;
56102;SDS011;41970;48.774;9.280;2022-08-30T02:09:03;6.63;;;6.03;;
56102;SDS011;41970;48.774;9.280;2022-08-30T02:11:29;6.87;;;5.70;;
56102;SDS011;41970;48.774;9.280;2022-08-30T02:13:55;5.83;;;5.23;;
56102;SDS011;41970;48.774;9.280;2022-08-30T02:16:21;6.40;;;5.53;;
56102;SDS011;41970;48.774;9.280;2022-08-30T02:18:49;9.80;;;6.50;;
56102;SDS011;41970;48.774;9.280;2022-08-30T02:21:16;8.27;;;7.13;;
56102;SDS011;41970;48.774;9.280;2022-08-30T02:23:43;9.27;;;7.13;;
56102;SDS011;41970;48.774;9.280;2022-08-30T02:26:09;7.30;;;6.60;;
56102;SDS011;41970;48.774;9.280;2022-08-30T02:28:36;7.00;;;5.80;;
56102;SDS011;41970;48.774;9.280;2022-08-30T02:31:02;7.53;;;6.40;;
56102;SDS011;41970;48.774;9.280;2022-08-30T02:33:28;8.03;;;7.33;;
56102;SDS011;41970;48.774;9.280;2022-08-30T02:35:54;8.53;;;7.00;;
56102;SDS011;41970;48.774;9.280;2022-08-30T02:38:20;7.03;;;6.07;;
56102;SDS011;41970;48.774;9.280;2022-08-30T02:40:48;6.57;;;5.97;;
56102;SDS011;41970;48.774;9.280;2022-08-30T02:43:14;9.60;;;6.30;;
56102;SDS011;41970;48.774;9.280;2022-08-30T02:45:40;8.73;;;7.70;;
56102;SDS011;41970;48.774;9.280;2022-08-30T02:48:06;8.13;;;7.43;;
56102;SDS011;41970;48.774;9.280;2022-08-30T02:50:33;10.27;;;7.60;;
56102;SDS011;41970;48.774;9.280;2022-08-30T02:52:59;9.20;;;6.57;;
56102;SDS011;41970;48.774;9.280;2022-08-30T02:55:25;7.83;;;7.13;;
56102;SDS011;41970;48.774;9.280;2022-08-30T02:57:50;7.03;;;6.27;;
56102;SDS011;41970;48.774;9.280;2022-08-30T03:00:18;8.03;;;7.27;;
56102;SDS011;41970;48.774;9.280;2022-08-30T03:02:45;7.03;;;6.33;;
56102;SDS011;41970;48.774;9.280;2022-08-30T03:05:11;8.53;;;6.00;;
56102;SDS011;41970;48.774;9.280;2022-08-30T03:07:39;9.40;;;6.70;;
56102;SDS011;41970;48.774;9.280;2022-08-30T03:10:05;7.33;;;6.60;;
56102;SDS011;41970;48.774;9.280;2022-08-30T03:12:32;8.60;;;7.03;;
56102;SDS011;41970;48.774;9.280;2022-08-30T03:14:58;8.67;;;6.87;;
56102;SDS011;41970;48.774;9.280;2022-08-30T03:17:24;8.20;;;6.00;;
56102;SDS011;41970;48.774;9.280;2022-08-30T03:19:50;7.63;;;6.30;;
56102;SDS011;41970;48.774;9.280;2022-08-30T03:22:16;7.07;;;6.47;;
56102;SDS011;41970;48.774;9.280;2022-08-30T03:24:42;7.67;;;6.60;;
56102;SDS011;41970;48.774;9.280;2022-08-30T03:27:10;6.70;;;6.10;;
56102;SDS011;41970;48.774;9.280;2022-08-30T03:29:36;6.77;;;6.13;;
56102;SDS011;41970;48.774;9.280;2022-08-30T03:32:03;6.67;;;5.97;;
56102;SDS011;41970;48.774;9.280;2022-08-30T03:34:29;9.93;;;7.30;;
56102;SDS011;41970;48.774;9.280;2022-08-30T03:36:56;7.33;;;6.63;;
56102;SDS011;41970;48.774;9.280;2022-08-30T03:39:23;8.63;;;7.10;;
56102;SDS011;41970;48.774;9.280;2022-08-30T03:41:49;6.53;;;5.77;;
56102;SDS011;41970;48.774;9.280;2022-08-30T03:44:15;6.33;;;5.40;;
56102;SDS011;41970;48.774;9.280;2022-08-30T03:46:41;8.10;;;6.60;;
56102;SDS011;41970;48.774;9.280;2022-08-30T03:49:07;9.77;;;6.37;;
56102;SDS011;41970;48.774;9.280;2022-08-30T03:51:33;8.37;;;6.80;;
56102;SDS011;41970;48.774;9.280;2022-08-30T03:53:59;7.10;;;6.37;;
56102;SDS011;41970;48.774;9.280;2022-08-30T03:56:25;10.60;;;7.30;;
56102;SDS011;41970;48.774;9.280;2022-08-30T03:58:51;6.80;;;6.20;;
56102;SDS011;41970;48.774;9.280;2022-08-30T04:01:17;7.90;;;5.60;;
56102;SDS011;41970;48.774;9.280;2022-08-30T04:03:43;8.10;;;6.17;;
56102;SDS011;41970;48.774;9.280;2022-08-30T04:06:09;8.13;;;5.87;;
56102;SDS011;41970;48.774;9.280;2022-08-30T04:08:36;6.47;;;5.87;;
56102;SDS011;41970;48.774;9.280;2022-08-30T04:11:03;6.37;;;5.87;;
56102;SDS011;41970;48.774;9.280;2022-08-30T04:13:30;8.37;;;6.30;;
56102;SDS011;41970;48.774;9.280;2022-08-30T04:15:56;7.50;;;5.90;;
56102;SDS011;41970;48.774;9.280;2022-08-30T04:18:22;6.27;;;5.73;;
56102;SDS011;41970;48.774;9.280;2022-08-30T04:20:47;6.80;;;6.10;;
56102;SDS011;41970;48.774;9.280;2022-08-30T04:23:15;7.20;;;6.27;;
56102;SDS011;41970;48.774;9.280;2022-08-30T04:25:41;7.33;;;5.83;;
56102;SDS011;41970;48.774;9.280;2022-08-30T04:28:07;7.93;;;7.20;;
56102;SDS011;41970;48.774;9.280;2022-08-30T04:30:36;7.60;;;6.20;;
56102;SDS011;41970;48.774;9.280;2022-08-30T04:33:04;10.67;;;8.03;;
56102;SDS011;41970;48.774;9.280;2022-08-30T04:35:30;8.53;;;7.43;;
56102;SDS011;41970;48.774;9.280;2022-08-30T04:37:56;7.00;;;6.40;;
56102;SDS011;41970;48.774;9.280;2022-08-30T04:40:22;6.53;;;5.93;;
56102;SDS011;41970;48.774;9.280;2022-08-30T04:42:48;7.47;;;6.77;;
56102;SDS011;41970;48.774;9.280;2022-08-30T04:45:18;7.00;;;6.30;;
56102;SDS011;41970;48.774;9.280;2022-08-30T04:47:45;7.63;;;6.83;;
56102;SDS011;41970;48.774;9.280;2022-08-30T04:50:12;6.97;;;6.07;;
56102;SDS011;41970;48.774;9.280;2022-08-30T04:52:40;7.13;;;6.43;;
56102;SDS011;41970;48.774;9.280;2022-08-30T04:55:07;7.33;;;6.63;;
56102;SDS011;41970;48.774;9.280;2022-08-30T04:57:34;8.20;;;6.77;;
56102;SDS011;41970;48.774;9.280;2022-08-30T05:00:03;6.90;;;6.30;;
56102;SDS011;41970;48.774;9.280;2022-08-30T05:02:31;8.37;;;7.57;;
56102;SDS011;41970;48.774;9.280;2022-08-30T05:04:57;7.40;;;6.70;;
56102;SDS011;41970;48.774;9.280;2022-08-30T05:07:41;8.00;;;7.27;;
56102;SDS011;41970;48.774;9.280;2022-08-30T05:10:07;7.00;;;6.30;;
56102;SDS011;41970;48.774;9.280;2022-08-30T05:12:33;8.07;;;7.23;;
56102;SDS011;41970;48.774;9.280;2022-08-30T05:14:59;8.03;;;6.33;;
56102;SDS011;41970;48.774;9.280;2022-08-30T05:17:25;8.97;;;8.07;;
56102;SDS011;41970;48.774;9.280;2022-08-30T05:19:51;6.90;;;6.20;;
56102;SDS011;41970;48.774;9.280;2022-08-30T05:22:17;8.03;;;7.20;;
56102;SDS011;41970;48.774;9.280;2022-08-30T05:24:43;7.87;;;7.17;;
56102;SDS011;41970;48.774;9.280;2022-08-30T05:27:09;7.67;;;6.97;;
56102;SDS011;41970;48.774;9.280;2022-08-30T05:29:34;7.90;;;7.13;;
56102;SDS011;41970;48.774;9.280;2022-08-30T05:32:00;8.80;;;7.23;;
56102;SDS011;41970;48.774;9.280;2022-08-30T05:34:28;8.70;;;7.90;;
56102;SDS011;41970;48.774;9.280;2022-08-30T05:36:54;8.40;;;7.70;;
56102;SDS011;41970;48.774;9.280;2022-08-30T05:39:20;8.40;;;7.57;;
56102;SDS011;41970;48.774;9.280;2022-08-30T05:41:46;7.80;;;7.10;;
56102;SDS011;41970;48.774;9.280;2022-08-30T05:44:12;7.20;;;6.30;;
56102;SDS011;41970;48.774;9.280;2022-08-30T05:46:38;9.07;;;8.07;;
56102;SDS011;41970;48.774;9.280;2022-08-30T05:49:09;7.20;;;6.50;;
56102;SDS011;41970;48.774;9.280;2022-08-30T05:51:36;8.27;;;7.37;;
56102;SDS011;41970;48.774;9.280;2022-08-30T05:54:02;21.73;;;8.87;;
56102;SDS011;41970;48.774;9.280;2022-08-30T05:56:31;7.93;;;6.87;;
56102;SDS011;41970;48.774;9.280;2022-08-30T05:59:00;7.53;;;6.50;;
56102;SDS011;41970;48.774;9.280;2022-08-30T06:01:28;10.40;;;7.13;;
56102;SDS011;41970;48.774;9.280;2022-08-30T06:03:56;7.23;;;6.53;;
56102;SDS011;41970;48.774;9.280;2022-08-30T06:06:25;8.83;;;7.50;;
56102;SDS011;41970;48.774;9.280;2022-08-30T06:08:52;10.07;;;7.67;;
56102;SDS011;41970;48.774;9.280;2022-08-30T06:11:18;12.40;;;8.77;;
56102;SDS011;41970;48.774;9.280;2022-08-30T06:13:46;8.40;;;7.70;;
56102;SDS011;41970;48.774;9.280;2022-08-30T06:16:14;8.53;;;7.57;;
56102;SDS011;41970;48.774;9.280;2022-08-30T06:18:42;8.57;;;7.70;;
56102;SDS011;41970;48.774;9.280;2022-08-30T06:21:13;8.33;;;7.63;;
56102;SDS011;41970;48.774;9.280;2022-08-30T06:23:43;8.60;;;7.73;;
56102;SDS011;41970;48.774;9.280;2022-08-30T06:26:09;10.20;;;8.00;;
56102;SDS011;41970;48.774;9.280;2022-08-30T06:28:35;9.33;;;7.80;;
56102;SDS011;41970;48.774;9.280;2022-08-30T06:31:04;9.67;;;8.40;;
56102;SDS011;41970;48.774;9.280;2022-08-30T06:33:31;10.03;;;9.00;;
56102;SDS011;41970;48.774;9.280;2022-08-30T06:36:03;9.13;;;8.13;;
56102;SDS011;41970;48.774;9.280;2022-08-30T06:38:31;9.37;;;8.47;;
56102;SDS011;41970;48.774;9.280;2022-08-30T06:40:57;9.77;;;8.37;;
56102;SDS011;41970;48.774;9.280;2022-08-30T06:43:23;10.00;;;7.83;;
56102;SDS011;41970;48.774;9.280;2022-08-30T06:45:48;9.07;;;7.30;;
56102;SDS011;41970;48.774;9.280;2022-08-30T06:48:15;10.70;;;7.20;;
56102;SDS011;41970;48.774;9.280;2022-08-30T06:50:41;8.63;;;7.27;;
56102;SDS011;41970;48.774;9.280;2022-08-30T06:53:08;8.40;;;7.60;;
56102;SDS011;41970;48.774;9.280;2022-08-30T06:55:34;9.17;;;7.50;;
56102;SDS011;41970;48.774;9.280;2022-08-30T06:58:01;7.83;;;7.03;;
56102;SDS011;41970;48.774;9.280;2022-08-30T07:00:28;7.80;;;7.00;;
56102;SDS011;41970;48.774;9.280;2022-08-30T07:02:55;7.90;;;7.10;;
56102;SDS011;41970;48.774;9.280;2022-08-30T07:05:22;8.80;;;7.23;;
56102;SDS011;41970;48.774;9.280;2022-08-30T07:07:49;8.00;;;6.93;;
56102;SDS011;41970;48.774;9.280;2022-08-30T07:10:17;8.33;;;7.57;;
56102;SDS011;41970;48.774;9.280;2022-08-30T07:12:43;8.03;;;7.33;;
56102;SDS011;41970;48.774;9.280;2022-08-30T07:15:10;7.87;;;6.87;;
56102;SDS011;41970;48.774;9.280;2022-08-30T07:17:36;12.63;;;7.63;;
56102;SDS011;41970;48.774;9.280;2022-08-30T07:20:20;9.90;;;8.20;;
56102;SDS011;41970;48.774;9.280;2022-08-30T07:22:46;11.30;;;7.60;;
56102;SDS011;41970;48.774;9.280;2022-08-30T07:25:13;7.20;;;6.20;;
56102;SDS011;41970;48.774;9.280;2022-08-30T07:27:40;7.93;;;7.17;;
56102;SDS011;41970;48.774;9.280;2022-08-30T07:30:07;7.83;;;7.03;;
56102;SDS011;41970;48.774;9.280;2022-08-30T07:32:33;8.23;;;7.43;;
56102;SDS011;41970;48.774;9.280;2022-08-30T07:34:59;11.13;;;8.40;;
56102;SDS011;41970;48.774;9.280;2022-08-30T07:37:25;12.83;;;9.00;;
56102;SDS011;41970;48.774;9.280;2022-08-30T07:39:51;17.60;;;8.57;;
56102;SDS011;41970;48.774;9.280;2022-08-30T07:42:17;11.27;;;7.47;;
56102;SDS011;41970;48.774;9.280;2022-08-30T07:44:43;7.47;;;6.77;;
56102;SDS011;41970;48.774;9.280;2022-08-30T07:47:09;9.23;;;7.23;;
56102;SDS011;41970;48.774;9.280;2022-08-30T07:49:35;7.30;;;6.63;;
56102;SDS011;41970;48.774;9.280;2022-08-30T07:52:02;9.13;;;7.10;;
56102;SDS011;41970;48.774;9.280;2022-08-30T07:54:28;11.80;;;7.33;;
56102;SDS011;41970;48.774;9.280;2022-08-30T07:56:54;6.63;;;6.07;;
56102;SDS011;41970;48.774;9.280;2022-08-30T07:59:21;14.17;;;7.40;;
56102;SDS011;41970;48.774;9.280;2022-08-30T08:01:47;7.43;;;6.70;;
56102;SDS011;41970;48.774;9.280;2022-08-30T08:04:13;7.57;;;6.50;;
56102;SDS011;41970;48.774;9.280;2022-08-30T08:06:39;8.40;;;6.37;;
56102;SDS011;41970;48.774;9.280;2022-08-30T08:09:05;8.17;;;7.10;;
56102;SDS011;41970;48.774;9.280;2022-08-30T08:11:32;7.13;;;6.53;;
56102;SDS011;41970;48.774;9.280;2022-08-30T08:14:00;6.97;;;6.30;;
56102;SDS011;41970;48.774;9.280;2022-08-30T08:16:27;7.17;;;6.00;;
56102;SDS011;41970;48.774;9.280;2022-08-30T08:18:55;8.07;;;7.27;;
56102;SDS011;41970;48.774;9.280;2022-08-30T08:21:22;7.93;;;7.20;;
56102;SDS011;41970;48.774;9.280;2022-08-30T08:23:49;7.83;;;6.63;;
56102;SDS011;41970;48.774;9.280;2022-08-30T08:26:16;8.13;;;6.90;;
56102;SDS011;41970;48.774;9.280;2022-08-30T08:28:42;7.33;;;6.70;;
56102;SDS011;41970;48.774;9.280;2022-08-30T08:31:20;6.77;;;6.23;;
56102;SDS011;41970;48.774;9.280;2022-08-30T08:33:48;7.20;;;6.60;;
56102;SDS011;41970;48.774;9.280;2022-08-30T08:36:14;6.83;;;6.20;;
56102;SDS011;41970;48.774;9.280;2022-08-30T08:38:41;7.63;;;6.93;;
56102;SDS011;41970;48.774;9.280;2022-08-30T08:43:51;9.80;;;6.90;;
56102;SDS011;41970;48.774;9.280;2022-08-30T08:46:20;7.73;;;6.87;;
56102;SDS011;41970;48.774;9.280;2022-08-30T08:49:11;6.50;;;6.00;;
56102;SDS011;41970;48.774;9.280;2022-08-30T08:51:38;6.70;;;6.10;;
56102;SDS011;41970;48.774;9.280;2022-08-30T08:54:46;6.70;;;5.67;;
56102;SDS011;41970;48.774;9.280;2022-08-30T08:57:22;5.60;;;5.13;;
56102;SDS011;41970;48.774;9.280;2022-08-30T08:59:48;5.77;;;5.30;;
56102;SDS011;41970;48.774;9.280;2022-08-30T09:02:25;6.23;;;5.63;;
56102;SDS011;41970;48.774;9.280;2022-08-30T09:04:53;6.70;;;6.10;;
56102;SDS011;41970;48.774;9.280;2022-08-30T09:07:24;6.33;;;5.83;;
56102;SDS011;41970;48.774;9.280;2022-08-30T09:09:53;5.13;;;4.73;;
56102;SDS011;41970;48.774;9.280;2022-08-30T09:12:24;5.30;;;4.80;;
56102;SDS011;41970;48.774;9.280;2022-08-30T09:14:53;6.80;;;5.73;;
56102;SDS011;41970;48.774;9.280;2022-08-30T09:17:47;5.10;;;4.70;;
56102;SDS011;41970;48.774;9.280;2022-08-30T09:20:29;5.70;;;5.17;;
56102;SDS011;41970;48.774;9.280;2022-08-30T09:23:19;5.13;;;4.73;;
56102;SDS011;41970;48.774;9.280;2022-08-30T09:25:55;5.77;;;5.37;;
56102;SDS011;41970;48.774;9.280;2022-08-30T09:28:29;6.97;;;5.90;;
56102;SDS011;41970;48.774;9.280;2022-08-30T09:33:25;5.73;;;5.20;;
56102;SDS011;41970;48.774;9.280;2022-08-30T09:35:51;7.67;;;7.07;;
56102;SDS011;41970;48.774;9.280;2022-08-30T09:38:18;8.63;;;5.60;;
56102;SDS011;41970;48.774;9.280;2022-08-30T09:40:51;5.13;;;4.63;;
56102;SDS011;41970;48.774;9.280;2022-08-30T09:43:26;5.80;;;5.30;;
56102;SDS011;41970;48.774;9.280;2022-08-30T10:10:29;5.67;;;5.17;;
56102;SDS011;41970;48.774;9.280;2022-08-30T10:18:44;4.57;;;4.20;;
56102;SDS011;41970;48.774;9.280;2022-08-30T10:21:22;7.50;;;4.70;;
56102;SDS011;41970;48.774;9.280;2022-08-30T10:23:54;5.33;;;4.93;;
56102;SDS011;41970;48.774;9.280;2022-08-30T10:26:35;5.43;;;4.90;;
56102;SDS011;41970;48.774;9.280;2022-08-30T10:29:30;5.00;;;4.60;;
56102;SDS011;41970;48.774;9.280;2022-08-30T10:32:09;4.63;;;4.23;;
56102;SDS011;41970;48.774;9.280;2022-08-30T10:35:09;5.37;;;4.77;;
56102;SDS011;41970;48.774;9.280;2022-08-30T10:38:07;5.90;;;4.90;;
56102;SDS011;41970;48.774;9.280;2022-08-30T10:40:54;4.90;;;4.50;;
56102;SDS011;41970;48.774;9.280;2022-08-30T10:43:44;5.23;;;4.83;;
56102;SDS011;41970;48.774;9.280;2022-08-30T10:49:03;5.47;;;5.07;;
56102;SDS011;41970;48.774;9.280;2022-08-30T10:51:35;5.67;;;5.27;;
56102;SDS011;41970;48.774;9.280;2022-08-30T10:54:11;4.80;;;4.40;;
56102;SDS011;41970;48.774;9.280;2022-08-30T10:56:43;5.30;;;4.90;;
56102;SDS011;41970;48.774;9.280;2022-08-30T10:59:15;4.47;;;4.17;;
56102;SDS011;41970;48.774;9.280;2022-08-30T11:04:58;4.70;;;4.30;;
56102;SDS011;41970;48.774;9.280;2022-08-30T11:07:37;4.73;;;4.00;;
56102;SDS011;41970;48.774;9.280;2022-08-30T11:13:27;5.53;;;5.03;;
56102;SDS011;41970;48.774;9.280;2022-08-30T11:16:06;7.40;;;4.63;;
56102;SDS011;41970;48.774;9.280;2022-08-30T11:21:18;4.83;;;4.43;;
56102;SDS011;41970;48.774;9.280;2022-08-30T11:24:02;4.83;;;4.43;;
56102;SDS011;41970;48.774;9.280;2022-08-30T11:31:56;4.73;;;4.30;;
56102;SDS011;41970;48.774;9.280;2022-08-30T11:40:01;4.87;;;4.50;;
56102;SDS011;41970;48.774;9.280;2022-08-30T11:47:54;5.47;;;5.07;;
56102;SDS011;41970;48.774;9.280;2022-08-30T11:53:27;4.90;;;4.50;;
56102;SDS011;41970;48.774;9.280;2022-08-30T11:55:55;4.27;;;3.87;;
56102;SDS011;41970;48.774;9.280;2022-08-30T11:58:54;4.57;;;4.27;;
56102;SDS011;41970;48.774;9.280;2022-08-30T12:03:55;5.17;;;4.80;;
56102;SDS011;41970;48.774;9.280;2022-08-30T12:09:03;4.77;;;4.37;;
56102;SDS011;41970;48.774;9.280;2022-08-30T12:13:59;5.77;;;5.17;;
56102;SDS011;41970;48.774;9.280;2022-08-30T12:19:24;4.90;;;4.60;;
56102;SDS011;41970;48.774;9.280;2022-08-30T12:21:54;5.53;;;5.13;;
56102;SDS011;41970;48.774;9.280;2022-08-30T12:24:26;5.67;;;5.20;;
56102;SDS011;41970;48.774;9.280;2022-08-30T12:26:56;4.40;;;4.10;;
56102;SDS011;41970;48.774;9.280;2022-08-30T12:29:24;4.53;;;4.23;;
56102;SDS011;41970;48.774;9.280;2022-08-30T12:31:53;6.07;;;4.87;;
56102;SDS011;41970;48.774;9.280;2022-08-30T12:34:31;5.20;;;4.80;;
56102;SDS011;41970;48.774;9.280;2022-08-30T12:37:05;4.90;;;4.60;;
56102;SDS011;41970;48.774;9.280;2022-08-30T12:39:44;4.70;;;4.40;;
56102;SDS011;41970;48.774;9.280;2022-08-30T12:44:38;5.30;;;4.90;;
56102;SDS011;41970;48.774;9.280;2022-08-30T12:47:05;5.40;;;4.90;;
56102;SDS011;41970;48.774;9.280;2022-08-30T12:49:33;4.93;;;4.53;;
56102;SDS011;41970;48.774;9.280;2022-08-30T12:55:09;5.23;;;4.73;;
56102;SDS011;41970;48.774;9.280;2022-08-30T13:00:49;5.10;;;4.60;;
56102;SDS011;41970;48.774;9.280;2022-08-30T13:03:34;5.47;;;4.97;;
56102;SDS011;41970;48.774;9.280;2022-08-30T13:06:01;5.03;;;4.53;;
56102;SDS011;41970;48.774;9.280;2022-08-30T13:08:33;5.03;;;4.60;;
56102;SDS011;41970;48.774;9.280;2022-08-30T13:18:33;4.90;;;4.50;;
56102;SDS011;41970;48.774;9.280;2022-08-30T13:23:50;4.77;;;4.37;;
56102;SDS011;41970;48.774;9.280;2022-08-30T13:26:20;5.20;;;4.40;;
56102;SDS011;41970;48.774;9.280;2022-08-30T13:28:56;5.30;;;4.90;;
56102;SDS011;41970;48.774;9.280;2022-08-30T13:31:24;5.03;;;4.60;;
56102;SDS011;41970;48.774;9.280;2022-08-30T13:33:51;4.67;;;4.37;;
56102;SDS011;41970;48.774;9.280;2022-08-30T13:36:29;4.90;;;4.50;;
56102;SDS011;41970;48.774;9.280;2022-08-30T13:38:57;4.97;;;4.57;;
56102;SDS011;41970;48.774;9.280;2022-08-30T13:41:25;4.53;;;4.20;;
56102;SDS011;41970;48.774;9.280;2022-08-30T13:43:51;8.33;;;5.17;;
56102;SDS011;41970;48.774;9.280;2022-08-30T13:46:17;5.70;;;5.23;;
56102;SDS011;41970;48.774;9.280;2022-08-30T13:48:45;5.17;;;4.77;;
56102;SDS011;41970;48.774;9.280;2022-08-30T13:51:11;4.70;;;4.30;;
56102;SDS011;41970;48.774;9.280;2022-08-30T13:53:37;5.63;;;5.07;;
56102;SDS011;41970;48.774;9.280;2022-08-30T13:56:04;5.17;;;4.77;;
56102;SDS011;41970;48.774;9.280;2022-08-30T13:58:33;5.40;;;5.00;;
56102;SDS011;41970;48.774;9.280;2022-08-30T14:00:59;5.90;;;4.97;;
56102;SDS011;41970;48.774;9.280;2022-08-30T14:03:25;6.13;;;5.63;;
56102;SDS011;41970;48.774;9.280;2022-08-30T14:05:51;5.73;;;4.90;;
56102;SDS011;41970;48.774;9.280;2022-08-30T14:08:18;6.50;;;5.90;;
56102;SDS011;41970;48.774;9.280;2022-08-30T14:10:46;4.73;;;4.30;;
56102;SDS011;41970;48.774;9.280;2022-08-30T14:13:12;5.27;;;4.87;;
56102;SDS011;41970;48.774;9.280;2022-08-30T14:15:38;5.90;;;5.40;;
56102;SDS011;41970;48.774;9.280;2022-08-30T14:18:05;5.83;;;5.30;;
56102;SDS011;41970;48.774;9.280;2022-08-30T14:20:32;5.17;;;4.73;;
56102;SDS011;41970;48.774;9.280;2022-08-30T14:22:59;4.80;;;4.40;;
56102;SDS011;41970;48.774;9.280;2022-08-30T14:25:26;6.80;;;4.90;;
56102;SDS011;41970;48.774;9.280;2022-08-30T14:27:53;5.90;;;5.40;;
56102;SDS011;41970;48.774;9.280;2022-08-30T14:30:20;4.53;;;4.23;;
56102;SDS011;41970;48.774;9.280;2022-08-30T14:32:46;5.30;;;4.80;;
56102;SDS011;41970;48.774;9.280;2022-08-30T14:35:12;4.47;;;4.07;;
56102;SDS011;41970;48.774;9.280;2022-08-30T14:37:38;4.23;;;3.93;;
56102;SDS011;41970;48.774;9.280;2022-08-30T14:40:04;4.97;;;4.50;;
56102;SDS011;41970;48.774;9.280;2022-08-30T14:42:30;5.80;;;5.20;;
56102;SDS011;41970;48.774;9.280;2022-08-30T14:44:56;4.50;;;4.20;;
56102;SDS011;41970;48.774;9.280;2022-08-30T14:47:22;5.00;;;4.60;;
56102;SDS011;41970;48.774;9.280;2022-08-30T14:49:48;5.07;;;4.67;;
56102;SDS011;41970;48.774;9.280;2022-08-30T14:52:14;5.33;;;4.83;;
56102;SDS011;41970;48.774;9.280;2022-08-30T14:54:39;5.60;;;5.10;;
56102;SDS011;41970;48.774;9.280;2022-08-30T14:57:05;4.80;;;4.40;;
56102;SDS011;41970;48.774;9.280;2022-08-30T14:59:31;6.17;;;5.67;;
56102;SDS011;41970;48.774;9.280;2022-08-30T15:01:57;4.90;;;4.50;;
56102;SDS011;41970;48.774;9.280;2022-08-30T15:04:24;6.03;;;5.33;;
56102;SDS011;41970;48.774;9.280;2022-08-30T15:06:50;5.00;;;4.60;;
56102;SDS011;41970;48.774;9.280;2022-08-30T15:09:18;5.87;;;5.37;;
56102;SDS011;41970;48.774;9.280;2022-08-30T15:11:46;5.60;;;5.10;;
56102;SDS011;41970;48.774;9.280;2022-08-30T15:14:12;5.03;;;4.63;;
56102;SDS011;41970;48.774;9.280;2022-08-30T15:16:38;5.77;;;5.07;;
56102;SDS011;41970;48.774;9.280;2022-08-30T15:19:06;5.23;;;4.83;;
56102;SDS011;41970;48.774;9.280;2022-08-30T15:21:39;6.40;;;5.00;;
56102;SDS011;41970;48.774;9.280;2022-08-30T15:24:11;4.90;;;4.40;;
56102;SDS011;41970;48.774;9.280;2022-08-30T15:26:39;5.10;;;4.70;;
56102;SDS011;41970;48.774;9.280;2022-08-30T15:29:08;5.77;;;5.23;;
56102;SDS011;41970;48.774;9.280;2022-08-30T15:31:36;5.20;;;4.90;;
56102;SDS011;41970;48.774;9.280;2022-08-30T15:34:04;5.30;;;4.90;;
56102;SDS011;41970;48.774;9.280;2022-08-30T15:36:34;5.63;;;5.13;;
56102;SDS011;41970;48.774;9.280;2022-08-30T15:39:02;4.60;;;4.20;;
56102;SDS011;41970;48.774;9.280;2022-08-30T15:41:28;5.20;;;4.77;;
56102;SDS011;41970;48.774;9.280;2022-08-30T15:43:55;5.00;;;4.60;;
56102;SDS011;41970;48.774;9.280;2022-08-30T15:46:29;5.40;;;4.90;;
56102;SDS011;41970;48.774;9.280;2022-08-30T15:48:59;5.43;;;5.00;;
56102;SDS011;41970;48.774;9.280;2022-08-30T15:51:31;5.87;;;5.30;;
56102;SDS011;41970;48.774;9.280;2022-08-30T15:53:59;4.97;;;4.57;;
56102;SDS011;41970;48.774;9.280;2022-08-30T15:56:25;5.50;;;5.00;;
56102;SDS011;41970;48.774;9.280;2022-08-30T15:58:51;8.00;;;4.90;;
56102;SDS011;41970;48.774;9.280;2022-08-30T16:01:20;4.93;;;4.53;;
56102;SDS011;41970;48.774;9.280;2022-08-30T16:03:46;5.50;;;5.10;;
56102;SDS011;41970;48.774;9.280;2022-08-30T16:06:13;5.00;;;4.50;;
56102;SDS011;41970;48.774;9.280;2022-08-30T16:08:41;5.50;;;5.00;;
56102;SDS011;41970;48.774;9.280;2022-08-30T16:11:08;10.30;;;5.00;;
56102;SDS011;41970;48.774;9.280;2022-08-30T16:13:36;5.90;;;5.40;;
56102;SDS011;41970;48.774;9.280;2022-08-30T16:16:04;5.07;;;4.73;;
56102;SDS011;41970;48.774;9.280;2022-08-30T16:18:31;4.70;;;4.30;;
56102;SDS011;41970;48.774;9.280;2022-08-30T16:21:03;4.73;;;4.43;;
56102;SDS011;41970;48.774;9.280;2022-08-30T16:23:37;5.60;;;5.20;;
56102;SDS011;41970;48.774;9.280;2022-08-30T16:26:04;5.00;;;4.47;;
56102;SDS011;41970;48.774;9.280;2022-08-30T16:28:30;4.90;;;4.53;;
56102;SDS011;41970;48.774;9.280;2022-08-30T16:30:57;5.50;;;5.10;;
56102;SDS011;41970;48.774;9.280;2022-08-30T16:33:23;5.30;;;4.90;;